WetterOnline ( https://www.wetteronline.de )

Wetter aktuell Lotte

Aktuelles Wetter: Münster/Osnabrück Flugh. (53m)

6-stündlich | Neueste Meldungen
Ortszeit Temperatur Wetter
Sa, 13.08. 20:00 29.4° C fast wolkenlos
Sa, 13.08. 14:00 30.0° C leicht bewölkt
Sa, 13.08. 8:00 19.1° C fast wolkenlos
Sa, 13.08. 2:00 19.8° C wolkenlos
Fr, 12.08. 20:00 29.0° C fast wolkenlos
Fr, 12.08. 14:00 30.7° C wolkenlos
Fr, 12.08. 8:00 18.5° C wolkenlos
Fr, 12.08. 2:00 18.5° C wolkenlos
Ortszeit Temperatur Wetter
Sa, 13.08. 20:00 29.4° C fast wolkenlos
Sa, 13.08. 19:50 29.4° C wolkenlos
Sa, 13.08. 19:40 29.5° C wolkenlos
Sa, 13.08. 19:30 29.8° C wolkenlos
Sa, 13.08. 19:20 29.8° C wolkenlos
Sa, 13.08. 19:00 30.4° C fast wolkenlos
Sa, 13.08. 18:30 30.5° C wolkenlos
Sa, 13.08. 18:00 30.8° C leicht bewölkt
Sa, 13.08. 17:30 30.4° C wolkenlos
Sa, 13.08. 17:00 29.7° C leicht bewölkt
Sa, 13.08. 16:30 30.6° C fast wolkenlos
Sa, 13.08. 16:00 31.5° C leicht bewölkt
Ortszeit Relative Feuchte Sichtweite
Sa, 13.08. 20:00 34% 45 km
Sa, 13.08. 14:00 29% 50 km
Sa, 13.08. 8:00 57% 50 km
Sa, 13.08. 2:00 48% 50 km
Fr, 12.08. 20:00 24% 45 km
Fr, 12.08. 14:00 24% 45 km
Fr, 12.08. 8:00 64% 40 km
Fr, 12.08. 2:00 65% 50 km
Ortszeit Relative Feuchte Sichtweite
Sa, 13.08. 20:00 34% 45 km
Sa, 13.08. 19:50 34% -
Sa, 13.08. 19:40 33% -
Sa, 13.08. 19:30 33% 60 km
Sa, 13.08. 19:20 33% -
Sa, 13.08. 19:00 31% 45 km
Sa, 13.08. 18:30 30% 55 km
Sa, 13.08. 18:00 29% 45 km
Sa, 13.08. 17:30 31% 65 km
Sa, 13.08. 17:00 32% 45 km
Sa, 13.08. 16:30 30% 45 km
Sa, 13.08. 16:00 28% 45 km
Ortszeit Niederschlagsmenge Niederschlagsart
Sa, 13.08. 20:00 0.0 l/m2 in 12 Std. -
Sa, 13.08. 14:00 0.0 l/m2 in 6 Std. -
Sa, 13.08. 8:00 0.0 l/m2 in 12 Std. -
Sa, 13.08. 2:00 0.0 l/m2 in 6 Std. -
Fr, 12.08. 20:00 0.0 l/m2 in 12 Std. -
Fr, 12.08. 14:00 0.0 l/m2 in 6 Std. -
Fr, 12.08. 8:00 0.0 l/m2 in 12 Std. -
Fr, 12.08. 2:00 0.0 l/m2 in 6 Std. -
Ortszeit Niederschlagsmenge Niederschlagsart
Sa, 13.08. 20:00 0.0 l/m2 in 1 Std. -
Sa, 13.08. 19:50 keine Meldung -
Sa, 13.08. 19:40 keine Meldung -
Sa, 13.08. 19:30 0.0 l/m2 in 1 Std. -
Sa, 13.08. 19:20 keine Meldung -
Sa, 13.08. 19:00 0.0 l/m2 in 1 Std. -
Sa, 13.08. 18:30 0.0 l/m2 in 1 Std. -
Sa, 13.08. 18:00 0.0 l/m2 in 1 Std. -
Sa, 13.08. 17:30 0.0 l/m2 in 1 Std. -
Sa, 13.08. 17:00 0.0 l/m2 in 1 Std. -
Sa, 13.08. 16:30 0.0 l/m2 in 1 Std. -
Sa, 13.08. 16:00 0.0 l/m2 in 1 Std. -
Ortszeit Stärke Spitze Richtung
km/h Bft. km/h Grad Sektor
Sa, 13.08. 20:00 7 2 36 70° O
Sa, 13.08. 14:00 9 2 22 100° O
Sa, 13.08. 8:00 0 0 11 - -
Sa, 13.08. 2:00 4 1 22 90° O
Fr, 12.08. 20:00 13 3 33 70° O
Fr, 12.08. 14:00 11 2 25 110° O
Fr, 12.08. 8:00 2 1 9 280° W
Fr, 12.08. 2:00 6 1 15 30° NO
Ortszeit Stärke Spitze Richtung
km/h Bft. km/h Grad Sektor
Sa, 13.08. 20:00 7 2 22 70° O
Sa, 13.08. 19:50 7 2 - 70° O
Sa, 13.08. 19:40 7 2 - 70° O
Sa, 13.08. 19:30 9 2 20 60° NO
Sa, 13.08. 19:20 9 2 - 60° NO
Sa, 13.08. 19:00 9 2 26 80° O
Sa, 13.08. 18:30 11 2 25 100° O
Sa, 13.08. 18:00 9 2 22 60° NO
Sa, 13.08. 17:30 11 2 22 40° NO
Sa, 13.08. 17:00 7 2 29 90° O
Sa, 13.08. 16:30 11 2 29 110° O
Sa, 13.08. 16:00 14 3 25 140° SO
Ortszeit Untergrenze Bedeckung Gattung
total tief tief mittel hoch
Sa, 13.08. 20:00 2100 m 1/8 1/8 Sc - -
Sa, 13.08. 14:00 2100 m 3/8 3/8 Cu - -
Sa, 13.08. 8:00 9000 m 1/8 0/8 - - Ci
Sa, 13.08. 2:00 - 0/8 0/8 - - -
Fr, 12.08. 20:00 2100 m 1/8 1/8 Sc - -
Fr, 12.08. 14:00 - 0/8 0/8 - - -
Fr, 12.08. 8:00 - 0/8 0/8 - - -
Fr, 12.08. 2:00 - 0/8 0/8 - - -
Ortszeit Bedeckungsgrad in Achtel und Wolkenuntergrenze
Sa, 13.08. 20:00 1(2100m)
Sa, 13.08. 19:50 keine Wolken
Sa, 13.08. 19:40 keine Wolken
Sa, 13.08. 19:30 keine Wolken
Sa, 13.08. 19:20 keine Wolken
Sa, 13.08. 19:00 1(2400m)
Sa, 13.08. 18:30 keine Wolken
Sa, 13.08. 18:00 2(2400m)
Sa, 13.08. 17:30 keine Wolken
Sa, 13.08. 17:00 2(2400m)
Sa, 13.08. 16:30 1(2100m)
Sa, 13.08. 16:00 2(2100m)
Ortszeit Luftdruck NN (hPa) Tendenz (hPa in 3 Std.)
Sa, 13.08. 20:00 1014 - 1,5
Sa, 13.08. 14:00 1017 - 1,4
Sa, 13.08. 8:00 1018 + 0,1
Sa, 13.08. 2:00 1018 + 0,2
Fr, 12.08. 20:00 1017 - 0,6
Fr, 12.08. 14:00 1019 - 1,4
Fr, 12.08. 8:00 1020 0,0
Fr, 12.08. 2:00 1021 - 0,1
Ortszeit Luftdruck NN (hPa) Tendenz (hPa in 3 Std.)
Sa, 13.08. 20:00 1014 - 1,5
Sa, 13.08. 19:50 1014 keine Meldung
Sa, 13.08. 19:40 1014 keine Meldung
Sa, 13.08. 19:30 1014 - 1,7
Sa, 13.08. 19:20 1014 keine Meldung
Sa, 13.08. 19:00 1014 - 1,7
Sa, 13.08. 18:30 1014 - 1,7
Sa, 13.08. 18:00 1015 - 1,7
Sa, 13.08. 17:30 1015 - 1,6
Sa, 13.08. 17:00 1015 - 1,5
Sa, 13.08. 16:30 1016 - 1,5
Sa, 13.08. 16:00 1016 - 1,6
Ortszeit Schneehöhe (cm)
Sa, 13.08. 20:00 0
Sa, 13.08. 14:00 0
Sa, 13.08. 8:00 0
Sa, 13.08. 2:00 0
Fr, 12.08. 20:00 0
Fr, 12.08. 14:00 0
Fr, 12.08. 8:00 0
Fr, 12.08. 2:00 0
Ortszeit Schneehöhe (cm)
Sa, 13.08. 20:00 0
Sa, 13.08. 19:50 0
Sa, 13.08. 19:40 0
Sa, 13.08. 19:30 0
Sa, 13.08. 19:20 0
Sa, 13.08. 19:00 0
Sa, 13.08. 18:30 0
Sa, 13.08. 18:00 0
Sa, 13.08. 17:30 0
Sa, 13.08. 17:00 0
Sa, 13.08. 16:30 0
Sa, 13.08. 16:00 0
Link zu dieser Seite / Seite empfehlen

Das Wetter in ...